Terminal Aerodrome Forecast
Issued by NWS

Home | Current Version | Previous Version | Text Only | Print | Product List | Glossary On
Versions: 1 2 3 4 5 6 7 8 9 10 11 12 13 14
000
FTUS41 KBTV 190500
TAFMPV
TAF
KMPV 190522Z 1906/2006 VRB03KT P6SM VCSH OVC050
     FM190900 30005KT P6SM VCSH OVC020
     FM191400 32013G23KT P6SM BKN040
     FM200000 VRB02KT P6SM SKC=

USA.gov is the U.S. government's official web portal to all federal, state and local government web resources and services.